Summerland Key, FL (33042)

11:15 PM EST on January 22, 2016 (GMT -0500)
Cudjoe Key | | Change Station
CLOSE
Current Station
Personal Weather Station
Location: Cudjoe Key, FL
Elevation: 16 ft
Nearby Weather Stations
Active Advisory: Wind Advisory

Elev 16 ft 24.66 °N, 81.48 °W | Updated 27 minutes ago

Clear
Clear
68.6 °F
Feels Like 68.6 °F
N
4.0
Wind Variable Wind from West
Gusts 20.0 mph

Today
High -- | Low -- °F
--% Chance of Precip.
Yesterday
High -- | Low -- °F
Precip. -- in
Pressure 29.88 in
Visibility 10.0 miles
Clouds Mostly Cloudy 4800 ft
Mostly Cloudy 6500 ft
Dew Point 62 °F
Humidity 79%
Rainfall 0.80 in
Snow Depth Not available.
7:11 AM 6:03 PM
Waxing Gibbous, 99% visible
METAR KNQX 230353Z AUTO 27016KT 10SM BKN048 BKN065 21/14 A2989 RMK AO2 SLP119 T02060139 $
Pressure 29.88 in
Visibility 10.0 miles
Clouds Mostly Cloudy 4800 ft
Mostly Cloudy 6500 ft
Dew Point 62 °F
Humidity 79%
Rainfall 0.80 in
Snow Depth Not available.
7:11 AM 6:03 PM
Waxing Gibbous, 99% visible
METAR KNQX 230353Z AUTO 27016KT 10SM BKN048 BKN065 21/14 A2989 RMK AO2 SLP119 T02060139 $

10-Day Weather Forecast

Almanac

Astronomy

Jan. 22, 2016 Rise Set
Actual Time
Civil Twilight
Nautical Twilight
Astronomical Twilight
Moon
Length of Visible Light
Length of Day
Tomorrow will be .
, % of the Moon is Illuminated

Today's Extremes

State Highs State Lows

Community

WunderPhotos

Upload Photos

1,887,304 photos uploaded!

WunderBlogs® & News

Nearby

Air Quality

  Air Quality AQ Index Pollutant
Not available.

Snow Depth

Station Depth Elevation

Earthquake Activity

City Distance Mag. Time & Date
Minimum magnitude displayed is 2.5.

Coastal Water Temperatures

Place Temperature

Stations

Nearby Weather Stations

Station Location Temp. Windchill Dew Point Humidity Wind Precip. Elev Updated Type
                   

Watches & Warnings

Wind Advisory
Statement as of 6:49 PM EST on January 22, 2016

... Wind Advisory in effect for increasing winds...

* timing... sustained west to northwest surface winds will increase to
25 to 30 mph... with occasional gusts of 35 to 40 mph after midnight
tonight.

* Winds... sustained west to northwest surface winds of 25 to 30
mph... with occasional gusts of 35 to 40 mph... will prevail
overnight.

* Impacts... aside from the difficulties normally associated with
driving high profile vehicles in high winds... the tall and
high bridges along the overseas Highway will be especially
dangerous.

Precautionary/preparedness actions...

A Wind Advisory means that sustained winds of 30 to 39 mph... or
frequent gusts in excess of 35 mph are expected. Winds this strong
can make driving difficult... especially for high profile vehicles.
Motorists should be alert for sudden gusts of wind... especially on
bridges... which may cause you to lose control of your vehicle. Use
extra caution.


Bs